Terminal Aerodrome Forecast
Issued by NWS

Home | Current Version | Previous Version | Graphics & Text | Print | Product List | Glossary Off
Versions: 1 2 3 4 5 6 7 8 9 10 11 12 13

000
FTUS43 KIWX 262325
TAFSBN
TAF
KSBN 262325Z 2700/2724 18006KT P6SM SCT035 BKN250
     FM270600 20003KT P6SM BKN040
     FM271500 02003KT P6SM VCSH OVC050=

USA.gov is the U.S. government's official web portal to all federal, state and local government web resources and services.